createdAt,value
2023-04-09T00:02:02.621Z,10.32
2023-04-09T00:04:29.081Z,8.80
2023-04-09T00:06:55.644Z,9.85
2023-04-09T00:09:22.103Z,10.23
2023-04-09T00:11:48.515Z,8.60
2023-04-09T00:14:14.942Z,7.50
2023-04-09T00:16:41.471Z,7.38
2023-04-09T00:19:07.929Z,8.25
2023-04-09T00:21:34.399Z,7.60
2023-04-09T00:24:01.187Z,7.63
2023-04-09T00:26:27.750Z,8.68
2023-04-09T00:28:54.334Z,5.93
2023-04-09T00:31:21.051Z,8.95
2023-04-09T00:33:47.577Z,13.88
2023-04-09T00:36:14.026Z,11.15
2023-04-09T00:38:40.804Z,8.00
2023-04-09T00:41:07.332Z,6.65
2023-04-09T00:43:33.762Z,9.27
2023-04-09T00:46:00.888Z,6.60
2023-04-09T00:48:27.510Z,6.57
2023-04-09T00:50:54.078Z,9.45
2023-04-09T00:53:20.641Z,8.15
2023-04-09T00:55:47.188Z,10.07
2023-04-09T00:58:13.935Z,6.55
2023-04-09T01:00:40.427Z,7.32
2023-04-09T01:03:07.216Z,8.65
2023-04-09T01:05:39.657Z,7.80
2023-04-09T01:08:15.120Z,7.53
2023-04-09T01:10:43.149Z,6.65
2023-04-09T01:13:32.637Z,8.70
2023-04-09T01:16:03.212Z,11.50
2023-04-09T01:18:34.834Z,10.18
2023-04-09T01:21:02.495Z,8.45
2023-04-09T01:23:32.327Z,8.88
2023-04-09T01:26:10.810Z,7.50
2023-04-09T01:28:39.903Z,7.57
2023-04-09T01:31:13.412Z,6.82
2023-04-09T01:33:40.598Z,7.60
2023-04-09T01:36:07.684Z,6.15
2023-04-09T01:38:36.299Z,9.27
2023-04-09T01:41:03.772Z,7.25
2023-04-09T01:43:31.026Z,9.15
2023-04-09T01:45:57.729Z,5.97
2023-04-09T01:48:24.407Z,7.88
2023-04-09T01:50:51.234Z,5.80
2023-04-09T01:53:17.819Z,6.82
2023-04-09T01:55:44.315Z,7.07
2023-04-09T01:58:10.953Z,7.88
2023-04-09T02:00:45.609Z,6.80
2023-04-09T02:03:25.965Z,9.65
2023-04-09T02:06:05.830Z,7.18
2023-04-09T02:08:34.552Z,7.68
2023-04-09T02:11:04.077Z,7.28
2023-04-09T02:13:33.904Z,6.93
2023-04-09T02:16:01.289Z,7.90
2023-04-09T02:18:28.658Z,5.97
2023-04-09T02:20:56.158Z,7.15
2023-04-09T02:23:22.707Z,8.25
2023-04-09T02:25:49.678Z,5.82
2023-04-09T02:28:16.438Z,5.75
2023-04-09T02:30:42.882Z,6.72
2023-04-09T02:33:09.351Z,7.63
2023-04-09T02:35:35.812Z,7.70
2023-04-09T02:38:02.268Z,9.18
2023-04-09T02:40:28.708Z,7.05
2023-04-09T02:42:55.199Z,5.70
2023-04-09T02:45:21.604Z,12.00
2023-04-09T02:47:47.997Z,8.43
2023-04-09T02:50:14.471Z,8.40
2023-04-09T02:52:40.943Z,8.75
2023-04-09T02:55:08.271Z,6.40
2023-04-09T02:57:34.807Z,8.18
2023-04-09T03:00:01.238Z,6.63
2023-04-09T03:02:27.780Z,7.57
2023-04-09T03:04:54.233Z,6.25
2023-04-09T03:07:20.855Z,6.57
2023-04-09T03:09:47.315Z,6.53
2023-04-09T03:12:13.801Z,5.32
2023-04-09T03:14:40.329Z,5.57
2023-04-09T03:17:06.725Z,6.22
2023-04-09T03:19:33.154Z,6.95
2023-04-09T03:21:59.760Z,6.85
2023-04-09T03:24:26.181Z,4.80
2023-04-09T03:26:52.668Z,5.97
2023-04-09T03:29:19.342Z,6.65
2023-04-09T03:31:45.733Z,5.72
2023-04-09T03:34:12.117Z,6.70
2023-04-09T03:36:38.564Z,9.27
2023-04-09T03:39:04.982Z,6.75
2023-04-09T03:41:31.427Z,5.03
2023-04-09T03:43:57.884Z,6.30
2023-04-09T03:46:26.402Z,5.88
2023-04-09T03:48:53.262Z,6.88
2023-04-09T03:51:19.985Z,7.47
2023-04-09T03:53:46.519Z,6.00
2023-04-09T03:56:12.923Z,8.23
2023-04-09T03:58:39.426Z,7.03
2023-04-09T04:01:05.918Z,5.25
2023-04-09T04:03:32.579Z,5.25
2023-04-09T04:06:03.078Z,4.53
2023-04-09T04:08:29.671Z,6.35
2023-04-09T04:10:56.170Z,7.43
2023-04-09T04:13:22.733Z,6.30
2023-04-09T04:15:49.208Z,5.72
2023-04-09T04:18:15.709Z,5.38
2023-04-09T04:20:42.073Z,5.85
2023-04-09T04:23:08.500Z,8.23
2023-04-09T04:25:34.937Z,6.53
2023-04-09T04:28:01.366Z,5.60
2023-04-09T04:30:27.769Z,7.88
2023-04-09T04:32:54.283Z,6.53
2023-04-09T04:35:21.673Z,4.45
2023-04-09T04:37:49.884Z,6.20
2023-04-09T04:40:16.321Z,5.13
2023-04-09T04:42:42.807Z,6.47
2023-04-09T04:45:11.336Z,5.13
2023-04-09T04:47:37.794Z,5.93
2023-04-09T04:50:04.466Z,5.70
2023-04-09T04:52:31.008Z,4.60
2023-04-09T04:54:57.589Z,4.90
2023-04-09T04:57:23.950Z,6.18
2023-04-09T04:59:50.475Z,5.90
2023-04-09T05:02:17.048Z,4.03
2023-04-09T05:04:43.524Z,5.70
2023-04-09T05:07:10.128Z,4.47
2023-04-09T05:09:36.532Z,5.53
2023-04-09T05:12:02.984Z,6.35
2023-04-09T05:14:29.370Z,4.15
2023-04-09T05:16:55.987Z,5.88
2023-04-09T05:19:22.441Z,8.00
2023-04-09T05:21:48.866Z,6.82
2023-04-09T05:24:15.271Z,6.72
2023-04-09T05:26:41.650Z,5.70
2023-04-09T05:29:08.094Z,6.05
2023-04-09T05:31:35.221Z,5.57
2023-04-09T05:34:01.695Z,5.55
2023-04-09T05:36:28.090Z,5.47
2023-04-09T05:38:54.715Z,7.63
2023-04-09T05:41:21.446Z,6.47
2023-04-09T05:43:47.883Z,5.95
2023-04-09T05:46:14.343Z,7.97
2023-04-09T05:48:41.243Z,6.20
2023-04-09T05:51:07.742Z,7.25
2023-04-09T05:53:34.154Z,6.15
2023-04-09T05:56:00.689Z,5.35
2023-04-09T05:58:28.687Z,8.23
2023-04-09T06:00:55.100Z,8.95
2023-04-09T06:03:21.642Z,8.77
2023-04-09T06:05:48.473Z,6.68
2023-04-09T06:08:15.186Z,7.50
2023-04-09T06:10:41.746Z,8.43
2023-04-09T06:13:08.177Z,6.60
2023-04-09T06:15:34.687Z,7.75
2023-04-09T06:18:01.289Z,9.60
2023-04-09T06:20:27.722Z,8.55
2023-04-09T06:22:54.167Z,8.20
2023-04-09T06:25:20.984Z,10.98
2023-04-09T06:27:47.502Z,6.93
2023-04-09T06:30:13.894Z,8.85
2023-04-09T06:32:51.132Z,10.60
2023-04-09T06:35:20.936Z,8.93
2023-04-09T06:37:47.318Z,9.50
2023-04-09T06:40:14.267Z,8.68
2023-04-09T06:42:43.724Z,10.07
2023-04-09T06:45:10.238Z,8.20
2023-04-09T06:47:36.733Z,8.10
2023-04-09T06:50:03.517Z,8.55
2023-04-09T06:52:30.418Z,8.07
2023-04-09T06:54:56.804Z,7.78
2023-04-09T06:57:23.196Z,7.35
2023-04-09T06:59:49.579Z,6.30
2023-04-09T07:02:16.150Z,9.10
2023-04-09T07:04:42.781Z,11.27
2023-04-09T07:07:09.490Z,11.48
2023-04-09T07:09:36.492Z,11.88
2023-04-09T07:12:02.940Z,8.23
2023-04-09T07:14:29.371Z,5.85
2023-04-09T07:16:55.870Z,7.40
2023-04-09T07:19:22.265Z,7.53
2023-04-09T07:21:48.678Z,6.53
2023-04-09T07:24:15.563Z,6.75
2023-04-09T07:26:42.731Z,6.00
2023-04-09T07:29:09.267Z,5.57
2023-04-09T07:31:36.212Z,4.43
2023-04-09T07:34:02.708Z,8.05
2023-04-09T07:36:29.154Z,5.63
2023-04-09T07:38:55.684Z,6.32
2023-04-09T07:41:22.298Z,3.65
2023-04-09T07:43:48.760Z,4.65
2023-04-09T07:46:18.834Z,6.05
2023-04-09T07:48:47.171Z,4.07
2023-04-09T07:51:15.308Z,3.42
2023-04-09T07:53:41.854Z,3.42
2023-04-09T07:56:08.249Z,11.30
2023-04-09T07:58:34.897Z,6.63
2023-04-09T08:01:03.117Z,5.38
2023-04-09T08:03:29.787Z,5.45
2023-04-09T08:05:56.383Z,5.25
2023-04-09T08:08:22.775Z,3.75
2023-04-09T08:10:49.205Z,4.35
2023-04-09T08:13:15.611Z,4.25
2023-04-09T08:15:42.032Z,4.28
2023-04-09T08:18:08.527Z,3.70
2023-04-09T08:20:35.023Z,5.53
2023-04-09T08:23:01.910Z,7.10
2023-04-09T08:25:28.743Z,6.40
2023-04-09T08:27:55.117Z,3.95
2023-04-09T08:30:21.615Z,2.40
2023-04-09T08:32:48.516Z,2.88
2023-04-09T08:35:15.053Z,2.92
2023-04-09T08:37:41.443Z,2.80
2023-04-09T08:40:10.995Z,2.35
2023-04-09T08:42:39.877Z,3.05
2023-04-09T08:45:06.539Z,3.17
2023-04-09T08:47:33.764Z,2.10
2023-04-09T08:50:00.236Z,2.42
2023-04-09T08:52:33.890Z,2.13
2023-04-09T08:55:00.526Z,1.67
2023-04-09T08:57:27.209Z,2.08
2023-04-09T08:59:53.677Z,2.25
2023-04-09T09:02:20.252Z,1.55
2023-04-09T09:04:47.545Z,2.03
2023-04-09T09:07:14.578Z,1.45
2023-04-09T09:09:51.449Z,1.63
2023-04-09T09:12:36.771Z,1.02
2023-04-09T09:15:03.322Z,5.18
2023-04-09T09:17:29.819Z,1.98
2023-04-09T09:19:56.448Z,2.00
2023-04-09T09:22:23.146Z,1.77
2023-04-09T09:24:51.211Z,1.85
2023-04-09T09:27:37.298Z,3.20
2023-04-09T09:30:05.789Z,1.15
2023-04-09T09:32:33.169Z,2.05
2023-04-09T09:35:03.740Z,1.92
2023-04-09T09:37:30.503Z,1.77
2023-04-09T09:39:57.552Z,1.92
2023-04-09T09:42:24.300Z,1.48
2023-04-09T09:44:51.560Z,1.73
2023-04-09T09:47:19.358Z,1.77
2023-04-09T09:49:46.161Z,2.15
2023-04-09T09:52:12.658Z,1.58
2023-04-09T09:54:42.748Z,2.40
2023-04-09T09:57:13.732Z,2.07
2023-04-09T10:02:08.183Z,2.92
2023-04-09T10:04:36.016Z,2.40
2023-04-09T10:07:04.490Z,4.93
2023-04-09T10:09:31.423Z,1.10
2023-04-09T10:11:59.260Z,2.25
2023-04-09T10:14:27.362Z,2.90
2023-04-09T10:16:53.915Z,1.20
2023-04-09T10:19:20.641Z,0.70
2023-04-09T10:22:26.108Z,1.67
2023-04-09T10:24:52.747Z,1.67
2023-04-09T10:27:19.215Z,0.77
2023-04-09T10:29:46.682Z,1.30
2023-04-09T10:32:13.701Z,0.70
2023-04-09T10:34:41.161Z,2.00
2023-04-09T10:37:09.710Z,2.70
2023-04-09T10:39:39.173Z,1.90
2023-04-09T10:42:08.950Z,3.95
2023-04-09T10:44:38.041Z,1.45
2023-04-09T10:47:06.343Z,1.10
2023-04-09T10:49:38.103Z,1.17
2023-04-09T10:52:04.655Z,1.60
2023-04-09T10:54:33.857Z,1.45
2023-04-09T10:57:15.670Z,1.48
2023-04-09T10:59:45.420Z,2.45
2023-04-09T11:02:24.303Z,0.60
2023-04-09T11:04:53.907Z,2.72
2023-04-09T11:07:22.246Z,1.23
2023-04-09T11:09:48.624Z,1.40
2023-04-09T11:12:15.348Z,0.95
2023-04-09T11:14:41.723Z,1.17
2023-04-09T11:17:08.168Z,2.08
2023-04-09T11:19:34.611Z,1.15
2023-04-09T11:22:01.047Z,0.80
2023-04-09T11:24:27.420Z,1.52
2023-04-09T11:26:54.723Z,2.22
2023-04-09T11:29:22.745Z,1.58
2023-04-09T11:31:49.311Z,1.45
2023-04-09T11:34:15.896Z,1.42
2023-04-09T11:36:42.308Z,1.55
2023-04-09T11:39:08.875Z,1.75
2023-04-09T11:41:38.770Z,1.92
2023-04-09T11:44:06.103Z,1.40
2023-04-09T11:46:32.773Z,1.52
2023-04-09T11:48:59.437Z,2.75
2023-04-09T11:51:27.235Z,2.92
2023-04-09T11:53:53.862Z,2.25
2023-04-09T11:56:20.654Z,0.90
2023-04-09T11:58:47.731Z,2.67
2023-04-09T12:01:14.345Z,1.10
2023-04-09T12:03:41.201Z,1.75
2023-04-09T12:06:09.317Z,0.82
2023-04-09T12:08:36.392Z,1.20
2023-04-09T12:11:12.715Z,1.42
2023-04-09T12:13:44.927Z,0.95
2023-04-09T12:16:12.092Z,0.95
2023-04-09T12:18:39.234Z,0.70
2023-04-09T12:21:06.256Z,1.20
2023-04-09T12:23:33.340Z,1.35
2023-04-09T12:26:01.320Z,1.00
2023-04-09T12:28:28.292Z,1.15
2023-04-09T12:30:55.156Z,1.05
2023-04-09T12:33:21.816Z,0.93
2023-04-09T12:35:48.228Z,1.20
2023-04-09T12:38:14.667Z,0.82
2023-04-09T12:40:41.325Z,1.10
2023-04-09T12:43:08.988Z,1.02
2023-04-09T12:45:35.579Z,1.50
2023-04-09T12:48:04.406Z,1.10
2023-04-09T12:50:31.014Z,1.10
2023-04-09T12:52:57.442Z,1.73
2023-04-09T12:55:23.983Z,0.90
2023-04-09T12:57:50.773Z,2.28
2023-04-09T13:00:17.273Z,1.13
2023-04-09T13:02:43.962Z,1.23
2023-04-09T13:05:10.529Z,1.77
2023-04-09T13:07:37.097Z,1.63
2023-04-09T13:10:03.736Z,1.83
2023-04-09T13:12:30.572Z,1.33
2023-04-09T13:14:57.467Z,1.48
2023-04-09T13:17:24.002Z,1.30
2023-04-09T13:19:51.689Z,1.65
2023-04-09T13:22:18.391Z,1.20
2023-04-09T13:24:44.890Z,1.45
2023-04-09T13:27:11.698Z,1.58
2023-04-09T13:29:41.464Z,1.67
2023-04-09T13:32:08.013Z,2.17
2023-04-09T13:34:35.128Z,1.40
2023-04-09T13:37:04.411Z,1.25
2023-04-09T13:39:30.925Z,1.37
2023-04-09T13:41:57.536Z,1.45
2023-04-09T13:44:24.930Z,1.20
2023-04-09T13:46:51.459Z,1.08
2023-04-09T13:49:17.897Z,1.10
2023-04-09T13:51:44.374Z,1.00
2023-04-09T13:54:11.313Z,1.13
2023-04-09T13:56:38.242Z,1.35
2023-04-09T13:59:04.714Z,1.80
2023-04-09T14:01:31.266Z,0.80
2023-04-09T14:03:57.972Z,1.38
2023-04-09T14:06:26.456Z,1.60
2023-04-09T14:08:53.400Z,1.73
2023-04-09T14:11:20.599Z,1.33
2023-04-09T14:13:47.144Z,1.30
2023-04-09T14:16:13.613Z,2.35
2023-04-09T14:18:40.383Z,1.75
2023-04-09T14:21:08.722Z,0.98
2023-04-09T14:23:39.047Z,1.48
2023-04-09T14:26:06.013Z,1.35
2023-04-09T14:28:33.169Z,1.52
2023-04-09T14:30:59.830Z,1.45
2023-04-09T14:33:26.534Z,1.00
2023-04-09T14:35:53.032Z,1.00
2023-04-09T14:38:19.456Z,1.40
2023-04-09T14:40:45.904Z,1.20
2023-04-09T14:43:12.310Z,1.48
2023-04-09T14:45:38.754Z,1.13
2023-04-09T14:48:05.892Z,1.27
2023-04-09T14:50:33.957Z,2.08
2023-04-09T14:53:00.986Z,4.13
2023-04-09T14:55:27.569Z,1.50
2023-04-09T14:57:54.002Z,2.13
2023-04-09T15:00:20.466Z,1.17
2023-04-09T15:02:47.706Z,1.27
2023-04-09T15:05:14.632Z,1.25
2023-04-09T15:07:41.689Z,1.40
2023-04-09T15:10:08.497Z,1.45
2023-04-09T15:12:35.279Z,1.00
2023-04-09T15:15:05.088Z,1.92
2023-04-09T15:17:31.601Z,1.63
2023-04-09T15:20:00.937Z,1.38
2023-04-09T15:22:27.546Z,1.25
2023-04-09T15:24:54.180Z,2.10
2023-04-09T15:27:20.586Z,1.40
2023-04-09T15:29:47.057Z,1.00
2023-04-09T15:32:13.461Z,1.45
2023-04-09T15:34:39.958Z,3.05
2023-04-09T15:37:06.583Z,1.75
2023-04-09T15:39:35.111Z,1.42
2023-04-09T15:42:01.967Z,1.60
2023-04-09T15:44:28.538Z,2.13
2023-04-09T15:46:54.997Z,1.75
2023-04-09T15:49:21.426Z,2.05
2023-04-09T15:51:48.333Z,1.30
2023-04-09T15:54:14.725Z,1.95
2023-04-09T15:56:41.187Z,0.90
2023-04-09T15:59:08.664Z,1.55
2023-04-09T16:01:36.315Z,1.10
2023-04-09T16:04:03.380Z,1.83
2023-04-09T16:06:29.853Z,1.00
2023-04-09T16:08:56.939Z,1.05
2023-04-09T16:11:23.445Z,1.30
2023-04-09T16:13:49.825Z,1.48
2023-04-09T16:16:16.303Z,1.10
2023-04-09T16:18:45.974Z,0.73
2023-04-09T16:21:12.535Z,1.55
2023-04-09T16:23:38.966Z,1.30
2023-04-09T16:26:05.751Z,1.30
2023-04-09T16:28:32.150Z,3.47
2023-04-09T16:30:59.170Z,1.08
2023-04-09T16:33:25.673Z,5.15
2023-04-09T16:35:52.103Z,1.27
2023-04-09T16:38:18.609Z,2.58
2023-04-09T16:40:45.058Z,1.30
2023-04-09T16:43:11.557Z,2.72
2023-04-09T16:45:37.982Z,1.70
2023-04-09T16:48:06.370Z,2.97
2023-04-09T16:50:33.011Z,1.25
2023-04-09T16:53:01.082Z,1.58
2023-04-09T16:55:27.544Z,3.78
2023-04-09T16:57:55.960Z,2.70
2023-04-09T17:00:22.413Z,2.92
2023-04-09T17:02:49.124Z,3.05
2023-04-09T17:05:16.803Z,3.15
2023-04-09T17:07:43.240Z,3.88
2023-04-09T17:10:09.757Z,4.22
2023-04-09T17:12:36.802Z,4.32
2023-04-09T17:15:05.763Z,2.70
2023-04-09T17:17:33.492Z,9.82
2023-04-09T17:20:06.678Z,3.80
2023-04-09T17:22:35.050Z,4.28
2023-04-09T17:25:02.577Z,4.30
2023-04-09T17:27:31.153Z,5.43
2023-04-09T17:29:57.619Z,4.75
2023-04-09T17:32:24.179Z,2.85
2023-04-09T17:34:50.682Z,4.43
2023-04-09T17:37:17.072Z,4.32
2023-04-09T17:39:43.510Z,6.03
2023-04-09T17:42:11.817Z,5.60
2023-04-09T17:44:38.719Z,3.33
2023-04-09T17:47:06.802Z,3.97
2023-04-09T17:49:33.509Z,5.25
2023-04-09T17:52:00.188Z,3.25
2023-04-09T17:54:26.591Z,4.88
2023-04-09T17:56:53.023Z,4.05
2023-04-09T17:59:19.405Z,2.92
2023-04-09T18:01:46.171Z,4.32
2023-04-09T18:04:15.088Z,3.47
2023-04-09T18:06:41.690Z,5.25
2023-04-09T18:09:08.185Z,7.53
2023-04-09T18:11:36.694Z,3.92
2023-04-09T18:14:07.818Z,5.10
2023-04-09T18:16:38.315Z,3.60
2023-04-09T18:19:08.266Z,3.80
2023-04-09T18:21:37.770Z,4.43
2023-04-09T18:24:04.382Z,5.72
2023-04-09T18:26:31.279Z,3.53
2023-04-09T18:29:00.159Z,4.00
2023-04-09T18:31:27.976Z,4.93
2023-04-09T18:33:54.507Z,5.78
2023-04-09T18:36:20.944Z,5.32
2023-04-09T18:38:47.491Z,4.97
2023-04-09T18:41:21.361Z,5.80
2023-04-09T18:43:48.647Z,4.35
2023-04-09T18:46:15.205Z,4.20
2023-04-09T18:48:44.064Z,9.10
2023-04-09T18:51:11.217Z,5.07
2023-04-09T18:53:38.115Z,4.28
2023-04-09T18:56:04.742Z,7.28
2023-04-09T18:58:31.445Z,5.55
2023-04-09T19:00:58.289Z,5.72
2023-04-09T19:03:25.435Z,5.38
2023-04-09T19:05:55.158Z,4.97
2023-04-09T19:08:22.261Z,4.07
2023-04-09T19:10:48.717Z,4.90
2023-04-09T19:13:15.505Z,4.97
2023-04-09T19:15:41.994Z,6.28
2023-04-09T19:18:08.409Z,4.97
2023-04-09T19:20:34.892Z,6.20
2023-04-09T19:23:04.895Z,6.93
2023-04-09T19:25:31.518Z,6.45
2023-04-09T19:27:58.059Z,4.85
2023-04-09T19:30:24.592Z,4.32
2023-04-09T19:32:51.110Z,5.82
2023-04-09T19:35:17.677Z,7.93
2023-04-09T19:37:44.928Z,4.93
2023-04-09T19:40:11.676Z,6.93
2023-04-09T19:42:38.165Z,5.97
2023-04-09T19:45:04.875Z,5.80
2023-04-09T19:47:31.375Z,9.70
2023-04-09T19:49:57.815Z,7.18
2023-04-09T19:52:24.288Z,7.07
2023-04-09T19:54:55.142Z,6.40
2023-04-09T19:57:21.948Z,8.30
2023-04-09T19:59:49.896Z,6.72
2023-04-09T20:02:16.824Z,8.18
2023-04-09T20:04:43.529Z,7.50
2023-04-09T20:07:09.963Z,6.63
2023-04-09T20:09:41.293Z,6.40
2023-04-09T20:12:10.983Z,7.55
2023-04-09T20:14:38.337Z,5.05
2023-04-09T20:17:05.432Z,5.68
2023-04-09T20:19:32.219Z,6.18
2023-04-09T20:22:00.400Z,7.20
2023-04-09T20:24:28.124Z,5.57
2023-04-09T20:26:55.095Z,8.40
2023-04-09T20:29:21.803Z,5.00
2023-04-09T20:31:48.372Z,5.35
2023-04-09T20:34:14.860Z,6.25
2023-04-09T20:36:43.631Z,6.57
2023-04-09T20:39:11.340Z,5.25
2023-04-09T20:41:37.829Z,7.20
2023-04-09T20:44:04.364Z,6.47
2023-04-09T20:46:30.817Z,7.10
2023-04-09T20:48:57.260Z,5.55
2023-04-09T20:51:23.719Z,8.80
2023-04-09T20:53:50.189Z,8.80
2023-04-09T20:56:16.988Z,7.35
2023-04-09T20:58:43.423Z,7.25
2023-04-09T21:01:13.142Z,7.35
2023-04-09T21:03:40.376Z,8.13
2023-04-09T21:08:59.313Z,5.95
2023-04-09T21:14:02.026Z,6.85
2023-04-09T21:16:29.874Z,7.53
2023-04-09T21:18:56.506Z,4.88
2023-04-09T21:21:23.395Z,7.72
2023-04-09T21:23:49.831Z,6.28
2023-04-09T21:26:16.280Z,7.13
2023-04-09T21:28:43.004Z,8.90
2023-04-09T21:31:09.987Z,6.60
2023-04-09T21:33:36.750Z,5.75
2023-04-09T21:36:04.568Z,5.35
2023-04-09T21:38:31.186Z,7.07
2023-04-09T21:40:58.043Z,6.00
2023-04-09T21:43:25.121Z,4.30
2023-04-09T21:45:51.702Z,3.95
2023-04-09T21:48:18.183Z,4.85
2023-04-09T21:50:44.594Z,5.20
2023-04-09T21:53:11.025Z,3.28
2023-04-09T21:55:37.689Z,5.40
2023-04-09T21:58:04.136Z,3.88
2023-04-09T22:00:30.953Z,5.68
2023-04-09T22:03:01.720Z,5.07
2023-04-09T22:05:28.569Z,4.55
2023-04-09T22:07:55.380Z,3.70
2023-04-09T22:10:22.199Z,3.17
2023-04-09T22:12:49.247Z,4.97
2023-04-09T22:15:16.401Z,4.47
2023-04-09T22:17:43.457Z,3.17
2023-04-09T22:20:09.958Z,5.75
2023-04-09T22:22:39.151Z,2.75
2023-04-09T22:25:06.993Z,3.53
2023-04-09T22:27:33.780Z,3.03
2023-04-09T22:30:00.250Z,3.30
2023-04-09T22:32:26.807Z,3.00
2023-04-09T22:34:53.613Z,3.78
2023-04-09T22:37:20.189Z,2.80
2023-04-09T22:39:46.670Z,2.47
2023-04-09T22:42:13.418Z,1.60
2023-04-09T22:44:39.923Z,3.60
2023-04-09T22:47:06.336Z,2.90
2023-04-09T22:49:32.706Z,2.17
2023-04-09T22:52:01.967Z,2.78
2023-04-09T22:54:30.279Z,1.52
2023-04-09T22:57:01.390Z,1.95
2023-04-09T22:59:38.978Z,3.30
2023-04-09T23:02:06.092Z,1.75
2023-04-09T23:04:34.097Z,2.17
2023-04-09T23:07:00.736Z,3.45
2023-04-09T23:09:27.142Z,2.10
2023-04-09T23:11:53.522Z,2.55
2023-04-09T23:14:19.899Z,3.35
2023-04-09T23:16:46.470Z,1.35
2023-04-09T23:19:12.856Z,1.45
2023-04-09T23:21:39.324Z,2.97
2023-04-09T23:24:05.892Z,2.20
2023-04-09T23:26:32.592Z,1.13
2023-04-09T23:28:59.021Z,1.77
2023-04-09T23:31:28.531Z,1.48
2023-04-09T23:33:55.206Z,1.20
2023-04-09T23:36:24.070Z,1.73
2023-04-09T23:38:50.475Z,1.92
2023-04-09T23:41:16.881Z,5.70
2023-04-09T23:43:43.323Z,1.67
2023-04-09T23:46:09.724Z,1.33
2023-04-09T23:48:38.996Z,3.35
2023-04-09T23:51:05.568Z,1.67
2023-04-09T23:53:31.968Z,1.40
2023-04-09T23:55:58.607Z,1.10
2023-04-09T23:58:25.427Z,1.48
